Time;durP1;ratioP1;P1;durP2;ratioP2;P2;SDS_P1;SDS_P2;PMS_P1;PMS_P2;Temp;Humidity;BMP_temperature;BMP_pressure;BME280_temperature;BME280_humidity;BME280_pressure;Samples;Min_cycle;Max_cycle;Signal;HPM_P1;HPM_P2
2022/12/01 00:04:01;;;;;;;;;;;;;;;6.86;92.10;99908.91;10202647;23;20344;-74
2022/12/01 00:08:05;;;;;;;;;;;;;;;6.87;92.26;99903.78;10220315;23;20009;-73
2022/12/01 00:12:11;;;;;;;;;;;;;;;6.86;92.57;99903.75;10217381;23;19924;-74
2022/12/01 00:16:16;;;;;;;;;;;;;;;6.85;92.77;99900.31;10208644;23;20375;-74
2022/12/01 00:20:18;;;;;;;;;;;;;;;6.85;92.37;99897.72;10217881;23;19924;-75
2022/12/01 00:24:26;;;;;;;;;;;;;;;6.86;92.26;99901.16;10217203;23;19987;-74
2022/12/01 00:28:28;;;;;;;;;;;;;;;6.88;92.43;99892.59;10219269;23;20018;-75
2022/12/01 00:36:39;;;;;;;;;;;;;;;6.88;92.77;99897.78;10217993;23;19924;-74
2022/12/01 00:40:41;;;;;;;;;;;;;;;6.86;92.59;99896.88;10218173;23;20204;-74
2022/12/01 00:44:43;;;;;;;;;;;;;;;6.86;92.70;99894.28;10217716;23;19960;-75
2022/12/01 00:48:44;;;;;;;;;;;;;;;6.85;92.76;99900.31;10235927;23;19929;-74
2022/12/01 00:52:46;;;;;;;;;;;;;;;6.87;92.43;99892.59;10218195;23;19959;-75
2022/12/01 00:56:48;;;;;;;;;;;;;;;6.89;92.64;99898.63;10219077;23;19924;-75
2022/12/01 01:00:59;;;;;;;;;;;;;;;6.89;92.82;99898.63;10186296;23;20319;-75
2022/12/01 01:05:01;;;;;;;;;;;;;;;6.88;92.96;99902.94;10217329;23;19924;-74
2022/12/01 01:09:02;;;;;;;;;;;;;;;6.90;93.11;99900.38;10216974;23;19999;-75
2022/12/01 01:13:04;;;;;;;;;;;;;;;6.89;92.60;99902.09;10215658;23;19935;-75
2022/12/01 01:17:05;;;;;;;;;;;;;;;6.90;93.02;99902.97;10192282;23;19924;-74
2022/12/01 01:21:08;;;;;;;;;;;;;;;6.86;93.06;99902.03;10219261;23;19928;-75
2022/12/01 01:25:09;;;;;;;;;;;;;;;6.89;93.06;99914.13;10217898;23;19935;-74
2022/12/01 01:29:10;;;;;;;;;;;;;;;6.90;93.34;99909.00;10218062;23;19928;-75
2022/12/01 01:33:12;;;;;;;;;;;;;;;6.89;93.41;99909.84;10190856;23;20005;-75
2022/12/01 01:37:13;;;;;;;;;;;;;;;6.90;93.49;99903.84;10217794;23;20775;-75
2022/12/01 01:41:14;;;;;;;;;;;;;;;6.90;93.64;99911.56;10217475;23;19928;-74
2022/12/01 01:45:24;;;;;;;;;;;;;;;6.88;93.31;99915.84;10228861;23;19924;-75
2022/12/01 01:49:25;;;;;;;;;;;;;;;6.90;93.46;99910.69;10217163;23;19948;-75
2022/12/01 01:53:27;;;;;;;;;;;;;;;6.92;93.65;99911.59;10218589;23;19931;-74
2022/12/01 01:57:30;;;;;;;;;;;;;;;6.91;93.25;99917.59;10221471;23;19924;-75
2022/12/01 02:01:31;;;;;;;;;;;;;;;6.90;93.04;99915.88;10214063;23;19931;-75
2022/12/01 02:05:34;;;;;;;;;;;;;;;6.90;93.13;99918.44;10220895;23;19924;-75
2022/12/01 02:09:35;;;;;;;;;;;;;;;6.90;93.31;99915.88;10194940;23;19932;-74
2022/12/01 02:13:58;;;;;;;;;;;;;;;6.90;93.06;99913.28;10194410;23;19964;-75
2022/12/01 02:18:16;;;;;;;;;;;;;;;6.91;93.66;99912.44;10212518;23;20295;-75
2022/12/01 02:22:23;;;;;;;;;;;;;;;6.90;93.32;99916.72;10218790;23;19924;-75
2022/12/01 02:26:32;;;;;;;;;;;;;;;6.93;93.78;99910.75;10219920;23;20417;-75
2022/12/01 02:30:38;;;;;;;;;;;;;;;6.92;93.62;99904.72;10187418;23;20259;-75
2022/12/01 02:34:43;;;;;;;;;;;;;;;6.89;93.71;99909.84;10220297;23;19932;-75
2022/12/01 02:38:53;;;;;;;;;;;;;;;6.90;93.78;99911.56;10221271;23;20277;-74
2022/12/01 02:43:16;;;;;;;;;;;;;;;6.90;93.88;99910.69;10219417;23;19929;-75
2022/12/01 02:47:18;;;;;;;;;;;;;;;6.87;93.92;99897.75;10215142;23;19958;-74
2022/12/01 02:51:24;;;;;;;;;;;;;;;6.89;94.07;99898.63;10194368;23;19967;-75
2022/12/01 02:55:25;;;;;;;;;;;;;;;6.89;94.16;99899.50;10219440;23;20363;-74
2022/12/01 02:59:26;;;;;;;;;;;;;;;6.90;94.49;99909.00;10222003;23;20027;-75
2022/12/01 03:03:36;;;;;;;;;;;;;;;6.91;94.70;99909.88;10220404;23;20366;-74
2022/12/01 03:07:50;;;;;;;;;;;;;;;6.90;94.96;99901.25;10228751;23;19924;-74
2022/12/01 03:12:08;;;;;;;;;;;;;;;6.90;95.26;99901.25;10227130;23;19935;-74
2022/12/01 03:16:19;;;;;;;;;;;;;;;6.86;95.40;99902.03;10227521;23;19995;-74
2022/12/01 03:20:23;;;;;;;;;;;;;;;6.88;95.22;99904.66;10203264;23;19924;-74
2022/12/01 03:24:26;;;;;;;;;;;;;;;6.90;95.78;99905.53;10228265;23;19928;-74
2022/12/01 03:28:29;;;;;;;;;;;;;;;6.89;96.16;99896.06;10229532;23;20386;-74
2022/12/01 03:32:36;;;;;;;;;;;;;;;6.91;96.53;99907.28;10195202;23;19982;-74
2022/12/01 03:36:55;;;;;;;;;;;;;;;6.90;97.06;99903.84;10202915;23;19924;-74
2022/12/01 03:41:03;;;;;;;;;;;;;;;6.90;97.34;99900.38;10201671;23;19928;-74
2022/12/01 03:45:07;;;;;;;;;;;;;;;6.85;97.48;99905.47;10193167;23;19939;-75
2022/12/01 03:49:08;;;;;;;;;;;;;;;6.83;97.34;99906.28;10223645;23;19923;-74
2022/12/01 03:53:23;;;;;;;;;;;;;;;6.81;97.53;99908.81;10225123;23;19931;-74
2022/12/01 03:57:28;;;;;;;;;;;;;;;6.78;97.87;99910.47;10227496;23;20036;-74
2022/12/01 04:01:31;;;;;;;;;;;;;;;6.76;98.16;99904.41;10217534;23;20248;-74
2022/12/01 04:05:33;;;;;;;;;;;;;;;6.74;98.21;99906.09;10219766;23;19928;-74
2022/12/01 04:09:34;;;;;;;;;;;;;;;6.72;98.15;99910.34;10220485;23;19935;-74
2022/12/01 04:13:36;;;;;;;;;;;;;;;6.72;98.52;99908.66;10195041;23;19952;-74
2022/12/01 04:17:37;;;;;;;;;;;;;;;6.73;98.62;99910.38;10213789;23;20312;-74
2022/12/01 04:21:39;;;;;;;;;;;;;;;6.72;98.76;99913.81;10219208;23;19924;-74
2022/12/01 04:25:40;;;;;;;;;;;;;;;6.68;98.78;99908.56;10219627;23;19959;-74
2022/12/01 04:29:41;;;;;;;;;;;;;;;6.69;99.32;99911.16;10220758;23;19924;-75
2022/12/01 04:33:43;;;;;;;;;;;;;;;6.66;99.25;99911.13;10210304;23;19999;-74
2022/12/01 04:37:44;;;;;;;;;;;;;;;6.61;99.49;99904.97;10221416;23;19978;-74
2022/12/01 04:41:45;;;;;;;;;;;;;;;6.61;99.78;99908.41;10218981;23;20009;-74
2022/12/01 04:45:47;;;;;;;;;;;;;;;6.63;99.59;99913.63;10211788;23;19924;-74
2022/12/01 04:49:48;;;;;;;;;;;;;;;6.64;99.99;99910.19;10244667;23;19971;-74
2022/12/01 04:53:50;;;;;;;;;;;;;;;6.64;99.81;99910.19;10219707;23;19924;-74
2022/12/01 04:57:51;;;;;;;;;;;;;;;6.64;99.56;99915.34;10245130;23;19924;-74
2022/12/01 05:01:53;;;;;;;;;;;;;;;6.61;99.57;99917.88;10212448;23;19956;-74
2022/12/01 05:06:01;;;;;;;;;;;;;;;6.60;99.69;99918.72;10220059;23;19928;-74
2022/12/01 05:10:02;;;;;;;;;;;;;;;6.57;99.78;99922.09;10220194;23;19924;-74
2022/12/01 05:14:05;;;;;;;;;;;;;;;6.57;99.88;99919.53;10220039;23;20011;-74
2022/12/01 05:18:06;;;;;;;;;;;;;;;6.57;99.76;99916.09;10189267;23;20495;-74
2022/12/01 05:22:07;;;;;;;;;;;;;;;6.55;99.86;99916.06;10225511;23;20007;-74
2022/12/01 05:26:09;;;;;;;;;;;;;;;6.56;99.80;99909.19;10223129;23;19924;-74
2022/12/01 05:30:11;;;;;;;;;;;;;;;6.56;99.87;99914.34;10194978;23;19924;-74
2022/12/01 05:34:12;;;;;;;;;;;;;;;6.56;99.75;99909.19;10221400;23;20011;-74
2022/12/01 05:38:14;;;;;;;;;;;;;;;6.54;100.00;99911.72;10197942;23;20007;-74
2022/12/01 05:42:15;;;;;;;;;;;;;;;6.56;99.93;99914.34;10221941;23;20378;-74
2022/12/01 05:46:16;;;;;;;;;;;;;;;6.54;99.72;99913.44;10189224;23;19982;-74
2022/12/01 05:50:18;;;;;;;;;;;;;;;6.53;99.94;99915.16;10223156;23;20003;-74
2022/12/01 05:54:19;;;;;;;;;;;;;;;6.54;100.00;99923.75;10225556;23;20002;-74
2022/12/01 05:58:21;;;;;;;;;;;;;;;6.55;99.89;99921.22;10199384;23;19951;-74
2022/12/01 06:02:23;;;;;;;;;;;;;;;6.54;100.00;99922.06;10217768;23;19928;-75
2022/12/01 06:06:24;;;;;;;;;;;;;;;6.53;99.89;99932.34;10227070;23;20020;-74
2022/12/01 06:10:25;;;;;;;;;;;;;;;6.49;100.00;99928.84;10225587;23;19929;-74
2022/12/01 06:14:27;;;;;;;;;;;;;;;6.47;100.00;99925.34;10224078;23;19924;-74
2022/12/01 06:18:29;;;;;;;;;;;;;;;6.46;100.00;99923.59;10240938;23;19928;-74
2022/12/01 06:22:31;;;;;;;;;;;;;;;6.47;100.00;99915.03;10224735;23;19990;-74
2022/12/01 06:26:32;;;;;;;;;;;;;;;6.43;100.00;99920.09;10224917;23;19966;-75
2022/12/01 06:30:34;;;;;;;;;;;;;;;6.42;99.85;99920.94;10218638;23;20011;-75
2022/12/01 06:34:35;;;;;;;;;;;;;;;6.43;99.70;99920.94;10223546;23;19986;-74
2022/12/01 06:38:38;;;;;;;;;;;;;;;6.38;99.97;99920.00;10225350;23;19932;-74
2022/12/01 06:42:40;;;;;;;;;;;;;;;6.35;99.90;99927.66;10222973;23;19960;-75
2022/12/01 06:46:41;;;;;;;;;;;;;;;6.35;99.48;99930.25;10193375;23;19924;-74
2022/12/01 06:50:43;;;;;;;;;;;;;;;6.35;99.33;99938.00;10223904;23;19963;-74
2022/12/01 06:54:44;;;;;;;;;;;;;;;6.34;99.29;99946.56;10220762;23;19935;-75
2022/12/01 06:58:46;;;;;;;;;;;;;;;6.32;99.28;99935.34;10222750;23;19924;-75
2022/12/01 07:02:51;;;;;;;;;;;;;;;6.32;99.46;99949.13;10188535;23;19951;-75
2022/12/01 07:06:52;;;;;;;;;;;;;;;6.33;99.47;99950.84;10221043;23;19924;-74
2022/12/01 07:11:01;;;;;;;;;;;;;;;6.33;99.59;99957.72;10221667;23;20006;-75
2022/12/01 07:15:03;;;;;;;;;;;;;;;6.30;99.32;99968.84;10216016;23;19924;-75
2022/12/01 07:19:05;;;;;;;;;;;;;;;6.28;99.77;99973.09;10216355;23;20097;-74
2022/12/01 07:23:06;;;;;;;;;;;;;;;6.29;100.00;99967.09;10219509;23;19928;-75
2022/12/01 07:27:08;;;;;;;;;;;;;;;6.31;99.90;99970.59;10222179;23;20011;-74
2022/12/01 07:31:18;;;;;;;;;;;;;;;6.31;99.70;99977.44;10229051;23;19920;-75
2022/12/01 07:35:21;;;;;;;;;;;;;;;6.31;99.63;99980.03;10269146;23;19921;-75
2022/12/01 07:39:22;;;;;;;;;;;;;;;6.29;99.55;99981.72;10273277;23;19960;-74
2022/12/01 07:43:24;;;;;;;;;;;;;;;6.26;99.68;99982.47;10231777;23;19924;-74
2022/12/01 07:47:25;;;;;;;;;;;;;;;6.23;99.13;99986.72;10215395;23;19932;-74
2022/12/01 07:51:28;;;;;;;;;;;;;;;6.21;99.02;99986.69;10227112;23;19956;-75
2022/12/01 07:55:33;;;;;;;;;;;;;;;6.20;99.57;99989.22;10225242;23;19920;-75
2022/12/01 07:59:36;;;;;;;;;;;;;;;6.14;98.72;100002.84;10226075;23;19940;-74
2022/12/01 08:03:49;;;;;;;;;;;;;;;6.09;99.10;99999.28;10213701;23;19931;-75
2022/12/01 08:07:53;;;;;;;;;;;;;;;6.09;98.91;100003.56;10230560;23;19924;-76
2022/12/01 08:12:13;;;;;;;;;;;;;;;6.08;98.85;100002.69;10219961;23;19920;-75
2022/12/01 08:16:30;;;;;;;;;;;;;;;6.09;99.17;100008.72;10220082;23;20232;-74
2022/12/01 08:20:31;;;;;;;;;;;;;;;6.06;99.17;100007.81;10224926;23;19924;-75
2022/12/01 08:24:35;;;;;;;;;;;;;;;6.02;98.63;100016.31;10221281;23;19935;-74
2022/12/01 08:28:40;;;;;;;;;;;;;;;6.01;99.04;100014.56;10221085;23;19956;-75
2022/12/01 08:32:43;;;;;;;;;;;;;;;6.01;98.89;100024.03;10213177;23;19955;-76
2022/12/01 08:36:44;;;;;;;;;;;;;;;5.95;98.78;100019.59;10220359;23;19959;-74
2022/12/01 08:40:46;;;;;;;;;;;;;;;5.89;98.53;100018.53;10220663;23;19955;-75
2022/12/01 08:44:51;;;;;;;;;;;;;;;5.88;98.48;100016.78;10220213;23;19924;-74
2022/12/01 08:48:56;;;;;;;;;;;;;;;5.89;98.83;100021.09;10211755;23;19924;-75
2022/12/01 08:53:00;;;;;;;;;;;;;;;5.87;98.50;100018.50;10219819;23;19924;-75
2022/12/01 08:57:04;;;;;;;;;;;;;;;5.84;98.63;100021.00;10217801;23;20569;-74
2022/12/01 09:01:06;;;;;;;;;;;;;;;5.78;98.19;100035.44;10211645;23;19951;-74
2022/12/01 09:05:09;;;;;;;;;;;;;;;5.75;98.17;100034.53;10221752;23;20220;-75
2022/12/01 09:09:12;;;;;;;;;;;;;;;5.73;98.49;100030.16;10225864;23;19935;-76
2022/12/01 09:13:13;;;;;;;;;;;;;;;5.73;98.14;100045.63;10216625;23;19935;-75
2022/12/01 09:17:15;;;;;;;;;;;;;;;5.70;97.83;100035.22;10218115;23;19920;-74
2022/12/01 09:21:17;;;;;;;;;;;;;;;5.68;97.89;100039.47;10224358;23;19924;-74
2022/12/01 09:25:18;;;;;;;;;;;;;;;5.66;97.89;100046.31;10201298;23;19975;-74
2022/12/01 09:29:19;;;;;;;;;;;;;;;5.64;97.47;100045.41;10226865;23;19924;-74
2022/12/01 09:33:21;;;;;;;;;;;;;;;5.63;97.24;100046.22;10191562;23;19982;-74
2022/12/01 09:37:22;;;;;;;;;;;;;;;5.63;97.66;100044.53;10224630;23;20312;-74
2022/12/01 09:41:25;;;;;;;;;;;;;;;5.59;97.29;100049.56;10226687;23;19920;-74
2022/12/01 09:45:29;;;;;;;;;;;;;;;5.58;97.14;100048.69;10216390;23;19947;-74
2022/12/01 09:49:33;;;;;;;;;;;;;;;5.57;97.13;100048.66;10226175;23;19970;-74
2022/12/01 09:53:35;;;;;;;;;;;;;;;5.54;96.89;100046.84;10240205;23;19924;-75
2022/12/01 09:57:38;;;;;;;;;;;;;;;5.54;96.75;100048.53;10223033;23;20077;-75
2022/12/01 10:01:41;;;;;;;;;;;;;;;5.54;96.61;100045.97;10243969;23;19920;-75
2022/12/01 10:05:50;;;;;;;;;;;;;;;5.51;96.71;100051.91;10255647;23;19931;-76
2022/12/01 10:10:14;;;;;;;;;;;;;;;5.47;96.64;100050.97;10254029;23;19924;-75
2022/12/01 10:14:17;;;;;;;;;;;;;;;5.50;96.93;100041.59;10254581;23;20054;-75
2022/12/01 10:18:24;;;;;;;;;;;;;;;5.49;96.49;100038.13;10274502;23;19924;-75
2022/12/01 10:22:33;;;;;;;;;;;;;;;5.46;96.52;100036.34;10274588;23;20732;-75
2022/12/01 10:26:35;;;;;;;;;;;;;;;5.47;95.97;100034.66;10245370;23;19920;-75
2022/12/01 10:30:46;;;;;;;;;;;;;;;5.49;95.82;100034.69;10234637;23;19935;-75
2022/12/01 10:34:47;;;;;;;;;;;;;;;5.47;95.10;100032.06;10210406;23;20366;-75
2022/12/01 10:38:49;;;;;;;;;;;;;;;5.47;95.54;100030.38;10210411;23;20245;-75
2022/12/01 10:42:50;;;;;;;;;;;;;;;5.50;95.09;100027.00;10207455;23;19924;-75
2022/12/01 10:46:53;;;;;;;;;;;;;;;5.53;95.13;100023.63;10251736;23;19924;-75
2022/12/01 10:51:12;;;;;;;;;;;;;;;5.49;94.51;100025.25;10233211;23;20267;-75
2022/12/01 10:55:25;;;;;;;;;;;;;;;5.51;94.46;100012.41;10224578;23;20022;-75
2022/12/01 10:59:45;;;;;;;;;;;;;;;5.53;94.38;100021.03;10196854;23;19934;-75
2022/12/01 11:03:58;;;;;;;;;;;;;;;5.52;93.90;100019.31;10223621;23;19959;-75
2022/12/01 11:08:01;;;;;;;;;;;;;;;5.51;93.45;100021.00;10227209;23;20106;-75
2022/12/01 11:12:03;;;;;;;;;;;;;;;5.51;93.28;100020.13;10222845;23;19931;-75
2022/12/01 11:16:05;;;;;;;;;;;;;;;5.49;92.84;100014.94;10215229;23;19935;-74
2022/12/01 11:20:28;;;;;;;;;;;;;;;5.51;92.38;100013.28;10225751;23;19932;-74
2022/12/01 11:24:43;;;;;;;;;;;;;;;5.47;91.96;100014.03;10197652;23;19974;-75
2022/12/01 11:28:51;;;;;;;;;;;;;;;5.45;91.75;100010.56;10223844;23;19924;-74
2022/12/01 11:32:54;;;;;;;;;;;;;;;5.45;91.53;100015.72;10213800;23;20601;-74
2022/12/01 11:37:16;;;;;;;;;;;;;;;5.44;90.98;100001.09;10222463;23;20291;-75
2022/12/01 11:41:25;;;;;;;;;;;;;;;5.45;90.91;100002.84;10228239;23;19962;-74
2022/12/01 11:45:31;;;;;;;;;;;;;;;5.45;90.50;100005.41;10232813;23;19924;-74
2022/12/01 11:49:38;;;;;;;;;;;;;;;5.44;90.10;100001.97;10195474;23;20435;-74
2022/12/01 11:53:47;;;;;;;;;;;;;;;5.42;89.69;100001.06;10218279;23;20634;-74
2022/12/01 11:57:50;;;;;;;;;;;;;;;5.41;89.16;99996.75;10220170;23;19947;-74
2022/12/01 12:02:00;;;;;;;;;;;;;;;5.40;88.84;99992.44;10218690;23;20240;-74
2022/12/01 12:06:20;;;;;;;;;;;;;;;5.38;89.19;99994.06;10215609;23;19983;-74
2022/12/01 12:10:59;;;;;;;;;;;;;;;5.41;89.25;99989.00;10219070;23;19928;-73
2022/12/01 12:15:12;;;;;;;;;;;;;;;5.40;88.88;99989.84;10236699;23;19983;-74
2022/12/01 12:24:35;;;;;;;;;;;;;;;5.43;89.16;99989.06;10217332;23;20375;-74
2022/12/01 12:28:37;;;;;;;;;;;;;;;5.45;88.88;99988.25;10220737;23;19929;-73
2022/12/01 12:32:46;;;;;;;;;;;;;;;5.46;89.42;99991.69;10220186;23;19994;-74
2022/12/01 12:37:08;;;;;;;;;;;;;;;5.52;89.51;99993.56;10198853;23;19924;-75
2022/12/01 12:41:10;;;;;;;;;;;;;;;5.52;89.17;99989.28;10223932;23;20322;-75
2022/12/01 12:45:26;;;;;;;;;;;;;;;5.53;89.51;99983.28;10211873;23;19959;-75
2022/12/01 12:49:47;;;;;;;;;;;;;;;5.53;89.69;99977.25;10214181;23;19935;-74
2022/12/01 12:54:09;;;;;;;;;;;;;;;5.58;89.70;99981.72;10219433;23;20638;-74
2022/12/01 12:58:44;;;;;;;;;;;;;;;5.61;89.75;99979.22;10221821;23;20373;-74
2022/12/01 13:03:01;;;;;;;;;;;;;;;5.58;89.57;99974.00;10062101;23;19948;-73
2022/12/01 13:07:21;;;;;;;;;;;;;;;5.61;89.34;99970.63;10048626;23;19949;-74
2022/12/01 13:11:50;;;;;;;;;;;;;;;5.61;89.54;99968.91;10045710;23;20003;-75
2022/12/01 13:15:54;;;;;;;;;;;;;;;5.63;89.03;99963.78;10040558;23;19926;-75
2022/12/01 13:19:55;;;;;;;;;;;;;;;5.66;88.59;99966.44;10077955;23;19925;-75
2022/12/01 13:23:56;;;;;;;;;;;;;;;5.70;88.91;99965.66;10050932;23;19925;-74
2022/12/01 13:27:59;;;;;;;;;;;;;;;5.73;89.13;99961.47;10025601;23;19925;-75
2022/12/01 13:32:01;;;;;;;;;;;;;;;5.82;88.91;99954.81;10043581;23;20320;-74
2022/12/01 13:36:07;;;;;;;;;;;;;;;5.83;88.94;99964.28;10091608;23;19920;-75
2022/12/01 13:40:29;;;;;;;;;;;;;;;5.89;88.55;99951.53;10229371;23;19924;-75
2022/12/01 13:44:31;;;;;;;;;;;;;;;5.94;88.66;99948.28;10225882;23;20220;-75
2022/12/01 13:48:38;;;;;;;;;;;;;;;5.98;88.42;99955.22;10199930;23;19921;-74
2022/12/01 13:52:47;;;;;;;;;;;;;;;5.96;87.60;99949.16;10226989;23;19932;-75
2022/12/01 13:56:58;;;;;;;;;;;;;;;5.94;87.29;99949.97;10229746;23;19986;-74
2022/12/01 14:01:18;;;;;;;;;;;;;;;5.93;87.02;99954.25;10219999;23;19959;-75
2022/12/01 14:05:23;;;;;;;;;;;;;;;5.94;87.27;99947.41;10206539;23;19924;-75
2022/12/01 14:09:32;;;;;;;;;;;;;;;5.95;87.26;99942.28;10206000;23;19920;-75
2022/12/01 14:13:44;;;;;;;;;;;;;;;5.94;86.07;99945.69;10228775;23;20312;-77
2022/12/01 14:17:45;;;;;;;;;;;;;;;5.93;86.04;99943.94;10222063;23;20376;-75
2022/12/01 14:21:48;;;;;;;;;;;;;;;5.89;85.75;99947.22;10226555;23;19928;-75
2022/12/01 14:26:08;;;;;;;;;;;;;;;5.89;85.55;99948.94;10227520;23;20698;-76
2022/12/01 14:30:28;;;;;;;;;;;;;;;5.85;85.38;99942.84;10196549;23;19950;-75
2022/12/01 14:34:33;;;;;;;;;;;;;;;5.81;84.22;99940.19;10202100;23;19948;-75
2022/12/01 14:38:35;;;;;;;;;;;;;;;5.74;83.86;99936.56;10225663;23;19978;-76
2022/12/01 14:47:14;;;;;;;;;;;;;;;5.64;83.00;99938.06;10235060;23;19991;-75
2022/12/01 14:51:33;;;;;;;;;;;;;;;5.54;82.31;99942.94;10236090;23;19955;-75
2022/12/01 14:55:40;;;;;;;;;;;;;;;5.53;82.88;99942.06;10229888;23;19924;-75
2022/12/01 14:59:42;;;;;;;;;;;;;;;5.47;82.76;99939.34;10228196;23;19920;-74
2022/12/01 15:03:47;;;;;;;;;;;;;;;5.39;82.93;99938.31;10216908;23;20003;-75
2022/12/01 15:07:50;;;;;;;;;;;;;;;5.33;82.76;99944.16;10248795;23;20335;-75
2022/12/01 15:12:22;;;;;;;;;;;;;;;5.33;83.67;99938.13;10222942;23;19963;-75
2022/12/01 15:16:25;;;;;;;;;;;;;;;5.31;84.00;99942.38;10250670;23;20033;-75
2022/12/01 15:20:32;;;;;;;;;;;;;;;5.28;83.89;99948.31;10232424;23;20259;-75
2022/12/01 15:24:34;;;;;;;;;;;;;;;5.30;83.65;99945.78;10235519;23;19943;-75
2022/12/01 15:28:35;;;;;;;;;;;;;;;5.28;83.56;99944.88;10249879;23;20196;-75
2022/12/01 15:32:37;;;;;;;;;;;;;;;5.23;83.76;99949.91;10214687;23;19948;-76
2022/12/01 15:36:39;;;;;;;;;;;;;;;5.19;83.86;99945.50;10224188;23;19924;-75
2022/12/01 15:40:41;;;;;;;;;;;;;;;5.18;84.08;99948.03;10224351;23;19986;-76
2022/12/01 15:45:15;;;;;;;;;;;;;;;5.12;83.96;99949.63;10219421;23;19935;-76
2022/12/01 15:49:20;;;;;;;;;;;;;;;5.08;83.52;99941.78;10218112;23;19928;-76
2022/12/01 15:53:28;;;;;;;;;;;;;;;5.03;83.77;99949.41;10215834;23;20003;-76
2022/12/01 15:57:35;;;;;;;;;;;;;;;5.00;84.20;99948.44;10217397;23;19935;-76
2022/12/01 16:01:51;;;;;;;;;;;;;;;4.98;84.19;99950.97;10208437;23;19928;-75
2022/12/01 16:06:15;;;;;;;;;;;;;;;4.95;83.87;99950.00;10211576;23;19974;-75
2022/12/01 16:10:26;;;;;;;;;;;;;;;4.95;84.13;99953.47;10204745;23;19955;-76
2022/12/01 16:14:48;;;;;;;;;;;;;;;4.96;84.61;99950.06;10209996;23;19924;-75
2022/12/01 16:19:01;;;;;;;;;;;;;;;4.97;85.06;99958.63;10206400;23;20310;-75
2022/12/01 16:23:09;;;;;;;;;;;;;;;4.98;84.87;99965.53;10186118;23;19928;-75
2022/12/01 16:27:23;;;;;;;;;;;;;;;4.97;84.46;99956.06;10214870;23;20722;-75
2022/12/01 16:31:38;;;;;;;;;;;;;;;4.96;84.86;99957.78;10208728;23;19949;-75
2022/12/01 16:36:02;;;;;;;;;;;;;;;4.98;84.86;99958.69;10189038;23;20282;-75
2022/12/01 16:40:04;;;;;;;;;;;;;;;4.96;84.90;99956.91;10212829;23;19925;-75
2022/12/01 16:44:06;;;;;;;;;;;;;;;4.91;84.49;99959.34;10213867;23;19958;-76
2022/12/01 16:48:29;;;;;;;;;;;;;;;4.95;85.15;99956.03;10208182;23;19928;-75
2022/12/01 16:52:32;;;;;;;;;;;;;;;4.93;85.06;99960.25;10217169;23;19928;-75
2022/12/01 16:57:16;;;;;;;;;;;;;;;4.92;84.96;99960.22;10165278;23;20302;-75
2022/12/01 17:01:19;;;;;;;;;;;;;;;4.89;84.76;99970.44;10132516;23;19925;-75
2022/12/01 17:05:21;;;;;;;;;;;;;;;4.90;84.51;99964.47;10163546;23;19960;-75
2022/12/01 17:09:24;;;;;;;;;;;;;;;4.91;85.01;99966.19;10140345;23;19991;-75
2022/12/01 17:13:25;;;;;;;;;;;;;;;4.87;84.58;99972.97;10138163;23;19924;-75
2022/12/01 17:17:29;;;;;;;;;;;;;;;4.84;84.65;99973.72;10108747;23;19933;-75
2022/12/01 17:21:46;;;;;;;;;;;;;;;4.84;85.12;99973.72;10164655;23;20219;-75
2022/12/01 17:25:47;;;;;;;;;;;;;;;4.80;84.03;99969.34;10170620;23;20003;-76
2022/12/01 17:29:48;;;;;;;;;;;;;;;4.80;83.96;99959.03;10174675;23;19963;-75
2022/12/01 17:33:50;;;;;;;;;;;;;;;4.82;83.99;99964.22;10179714;23;20459;-75
2022/12/01 17:37:51;;;;;;;;;;;;;;;4.81;84.14;99965.94;10200797;23;20036;-76
2022/12/01 17:41:53;;;;;;;;;;;;;;;4.82;84.87;99977.09;10224812;23;19928;-76
2022/12/01 17:45:55;;;;;;;;;;;;;;;4.78;83.79;99978.72;10218655;23;19959;-76
2022/12/01 17:49:56;;;;;;;;;;;;;;;4.77;83.53;99983.81;10226045;23;19934;-76
2022/12/01 17:53:58;;;;;;;;;;;;;;;4.77;83.01;99983.81;10201491;23;20371;-76
2022/12/01 17:57:59;;;;;;;;;;;;;;;4.76;83.86;99982.06;10227273;23;19982;-76
2022/12/01 18:02:00;;;;;;;;;;;;;;;4.77;83.87;99986.41;10213000;23;20298;-75
2022/12/01 18:06:02;;;;;;;;;;;;;;;4.80;84.87;99984.78;10221836;23;19936;-75
2022/12/01 18:10:04;;;;;;;;;;;;;;;4.80;84.46;99976.19;10195865;23;20614;-75
2022/12/01 18:14:05;;;;;;;;;;;;;;;4.80;85.27;99968.47;10195184;23;19920;-75
2022/12/01 18:18:08;;;;;;;;;;;;;;;4.80;84.95;99969.34;10187019;23;20538;-76
2022/12/01 18:22:12;;;;;;;;;;;;;;;4.78;84.84;99971.00;10195870;23;20000;-76
2022/12/01 18:26:20;;;;;;;;;;;;;;;4.78;84.49;99964.97;10221528;23;19925;-75
2022/12/01 18:30:23;;;;;;;;;;;;;;;4.80;85.16;99968.47;10214163;23;20351;-76
2022/12/01 18:34:26;;;;;;;;;;;;;;;4.77;85.01;99971.84;10218752;23;19947;-75
2022/12/01 18:38:32;;;;;;;;;;;;;;;4.77;84.95;99971.84;10197633;23;19931;-75
2022/12/01 18:42:36;;;;;;;;;;;;;;;4.77;85.48;99969.25;10218751;23;19924;-75
2022/12/01 18:46:37;;;;;;;;;;;;;;;4.78;85.56;99964.97;10214479;23;20386;-75
2022/12/01 18:50:54;;;;;;;;;;;;;;;4.76;85.34;99962.38;10202750;23;19924;-75
2022/12/01 18:54:59;;;;;;;;;;;;;;;4.75;85.06;99947.78;10200920;23;19983;-75
2022/12/01 18:59:03;;;;;;;;;;;;;;;4.77;85.02;99950.38;10225822;23;19932;-75
2022/12/01 19:03:05;;;;;;;;;;;;;;;4.78;85.42;99949.53;10216939;23;20380;-76
2022/12/01 19:07:06;;;;;;;;;;;;;;;4.77;85.06;99950.38;10227585;23;19924;-75
2022/12/01 19:11:08;;;;;;;;;;;;;;;4.75;84.88;99941.75;10221590;23;20011;-75
2022/12/01 19:15:13;;;;;;;;;;;;;;;4.75;85.19;99936.59;10215041;23;19924;-76
2022/12/01 19:19:15;;;;;;;;;;;;;;;4.74;84.60;99935.75;10223430;23;19951;-75
2022/12/01 19:23:16;;;;;;;;;;;;;;;4.71;84.72;99940.81;10223303;23;20014;-76
2022/12/01 19:27:18;;;;;;;;;;;;;;;4.74;85.24;99945.16;10200433;23;20304;-75
2022/12/01 19:31:22;;;;;;;;;;;;;;;4.73;85.20;99951.13;10216517;23;19924;-75
2022/12/01 19:35:29;;;;;;;;;;;;;;;4.75;85.55;99946.91;10218087;23;19990;-75
2022/12/01 19:39:32;;;;;;;;;;;;;;;4.75;86.07;99957.19;10220278;23;19987;-75
2022/12/01 19:44:06;;;;;;;;;;;;;;;4.73;85.73;99949.44;10216828;23;19995;-75
2022/12/01 19:48:20;;;;;;;;;;;;;;;4.72;86.10;99949.38;10217856;23;19931;-75
2022/12/01 19:52:21;;;;;;;;;;;;;;;4.67;86.09;99941.56;10224887;23;20558;-75
2022/12/01 19:56:22;;;;;;;;;;;;;;;4.65;86.11;99955.16;10222781;23;20625;-75
2022/12/01 20:00:24;;;;;;;;;;;;;;;4.62;87.11;99960.22;10218680;23;19924;-75
2022/12/01 20:04:27;;;;;;;;;;;;;;;4.62;87.36;99960.22;10218284;23;19924;-75
2022/12/01 20:08:28;;;;;;;;;;;;;;;4.62;87.31;99955.09;10219210;23;20025;-75
2022/12/01 20:12:34;;;;;;;;;;;;;;;4.62;88.13;99952.53;10220370;23;19999;-75
2022/12/01 20:16:35;;;;;;;;;;;;;;;4.63;88.11;99959.41;10213552;23;19939;-76
2022/12/01 20:20:37;;;;;;;;;;;;;;;4.61;88.16;99956.78;10222380;23;19955;-75
2022/12/01 20:24:40;;;;;;;;;;;;;;;4.62;88.06;99965.38;10195415;23;20320;-75
2022/12/01 20:28:43;;;;;;;;;;;;;;;4.63;88.01;99961.97;10222244;23;19924;-75
2022/12/01 20:32:44;;;;;;;;;;;;;;;4.60;88.41;99962.75;10213338;23;19948;-75
2022/12/01 20:36:46;;;;;;;;;;;;;;;4.57;88.46;99962.69;10213647;23;20536;-75
2022/12/01 20:40:49;;;;;;;;;;;;;;;4.55;88.43;99949.78;10216272;23;19935;-75
2022/12/01 20:44:51;;;;;;;;;;;;;;;4.59;88.45;99953.31;10214631;23;19924;-75
2022/12/01 20:49:03;;;;;;;;;;;;;;;4.54;88.14;99949.75;10223272;23;19978;-76
2022/12/01 20:53:05;;;;;;;;;;;;;;;4.53;88.12;99945.44;10194625;23;19924;-74
2022/12/01 20:57:07;;;;;;;;;;;;;;;4.49;88.43;99941.91;10195691;23;20007;-75
2022/12/01 21:01:09;;;;;;;;;;;;;;;4.38;88.24;99947.56;10211548;23;19952;-75
2022/12/01 21:05:11;;;;;;;;;;;;;;;4.26;88.63;99945.47;10221368;23;19924;-75
2022/12/01 21:09:13;;;;;;;;;;;;;;;4.21;88.45;99953.06;10195646;23;19924;-75
2022/12/01 21:17:40;;;;;;;;;;;;;;;4.07;89.10;99956.91;10216254;23;19924;-75
2022/12/01 21:21:42;;;;;;;;;;;;;;;4.04;89.38;99956.81;10235646;23;19924;-75
2022/12/01 21:25:43;;;;;;;;;;;;;;;3.98;90.12;99946.38;10195044;23;19924;-75
2022/12/01 21:29:49;;;;;;;;;;;;;;;3.90;90.88;99951.25;10221259;23;19948;-75
2022/12/01 21:33:50;;;;;;;;;;;;;;;3.79;90.77;99942.34;10215452;23;19987;-74
2022/12/01 21:38:00;;;;;;;;;;;;;;;3.72;91.46;99947.22;10199470;23;19935;-75